createdAt,value
2019-06-01T00:04:03.586Z,101999.00
2019-06-01T00:09:09.146Z,102000.27
2019-06-01T00:14:14.502Z,102000.34
2019-06-01T00:19:19.966Z,101997.81
2019-06-01T00:24:25.539Z,102003.35
2019-06-01T00:29:30.866Z,101996.69
2019-06-01T00:34:36.403Z,101993.50
2019-06-01T00:39:41.789Z,101998.41
2019-06-01T00:44:48.501Z,101998.86
2019-06-01T00:49:53.818Z,101996.94
2019-06-01T00:54:59.076Z,102002.14
2019-06-01T01:00:06.510Z,102001.16
2019-06-01T01:05:17.341Z,102014.13
2019-06-01T01:10:22.954Z,102012.53
2019-06-01T01:15:28.346Z,102018.48
2019-06-01T01:20:34.177Z,102012.91
2019-06-01T01:25:39.540Z,102001.86
2019-06-01T01:31:01.688Z,102004.79
2019-06-01T01:35:52.566Z,102003.31
2019-06-01T01:40:59.458Z,101995.41
2019-06-01T01:46:05.358Z,101990.23
2019-06-01T01:51:11.700Z,101993.84
2019-06-01T01:56:17.163Z,101995.60
2019-06-01T02:01:23.268Z,101992.77
2019-06-01T02:06:29.295Z,101992.31
2019-06-01T02:11:34.863Z,101999.13
2019-06-01T02:16:40.229Z,101982.98
2019-06-01T02:21:45.548Z,101983.97
2019-06-01T02:26:53.030Z,101982.62
2019-06-01T02:31:59.162Z,101982.38
2019-06-01T02:37:04.700Z,101985.81
2019-06-01T02:42:11.868Z,101986.36
2019-06-01T02:47:17.399Z,101988.61
2019-06-01T02:52:22.906Z,101989.72
2019-06-01T02:57:28.151Z,101992.27
2019-06-01T03:02:33.779Z,101982.37
2019-06-01T03:07:42.919Z,101984.44
2019-06-01T03:12:50.568Z,101992.70
2019-06-01T03:17:59.410Z,101996.96
2019-06-01T03:23:05.818Z,101992.86
2019-06-01T03:28:14.044Z,101990.42
2019-06-01T03:33:19.444Z,101988.79
2019-06-01T03:38:24.904Z,101992.11
2019-06-01T03:43:30.272Z,101990.48
2019-06-01T03:48:35.830Z,101990.27
2019-06-01T03:53:41.185Z,101996.00
2019-06-01T03:58:46.749Z,101995.06
2019-06-01T04:03:52.107Z,101995.84
2019-06-01T04:08:57.423Z,101990.96
2019-06-01T04:14:03.414Z,102001.69
2019-06-01T04:19:10.032Z,102002.94
2019-06-01T04:24:15.498Z,101999.32
2019-06-01T04:29:20.735Z,102009.29
2019-06-01T04:34:26.008Z,102000.80
2019-06-01T04:39:31.371Z,101999.14
2019-06-01T04:44:36.841Z,102017.13
2019-06-01T04:49:42.134Z,102020.53
2019-06-01T04:54:47.382Z,102017.53
2019-06-01T04:59:52.634Z,102021.94
2019-06-01T05:04:58.169Z,102025.72
2019-06-01T05:10:05.171Z,102015.95
2019-06-01T05:15:15.975Z,102018.72
2019-06-01T05:20:21.937Z,102023.23
2019-06-01T05:25:27.317Z,102014.77
2019-06-01T05:30:32.559Z,102021.09
2019-06-01T05:35:37.853Z,102022.36
2019-06-01T05:40:43.281Z,102013.46
2019-06-01T05:45:48.606Z,102019.67
2019-06-01T05:50:53.892Z,102017.58
2019-06-01T05:55:59.321Z,102023.80
2019-06-01T06:01:04.792Z,102013.48
2019-06-01T06:06:10.088Z,102005.70
2019-06-01T06:11:15.349Z,102013.70
2019-06-01T06:16:21.273Z,102010.25
2019-06-01T06:21:27.891Z,102013.52
2019-06-01T06:26:33.080Z,102013.30
2019-06-01T06:31:38.586Z,102003.18
2019-06-01T06:36:43.729Z,102003.45
2019-06-01T06:41:48.864Z,101994.73
2019-06-01T06:46:54.009Z,101999.54
2019-06-01T06:51:59.388Z,101996.56
2019-06-01T06:57:04.596Z,102004.20
2019-06-01T07:02:09.948Z,102009.27
2019-06-01T07:07:15.380Z,102008.88
2019-06-01T07:12:21.226Z,102007.56
2019-06-01T07:17:27.775Z,102005.12
2019-06-01T07:22:32.846Z,101998.73
2019-06-01T07:27:38.041Z,101991.17
2019-06-01T07:32:43.226Z,101988.89
2019-06-01T07:37:48.538Z,101982.92
2019-06-01T07:42:53.805Z,101977.51
2019-06-01T07:53:58.114Z,101981.17
2019-06-01T07:59:04.470Z,101978.09
2019-06-01T08:04:09.860Z,101985.65
2019-06-01T08:09:15.025Z,101986.59
2019-06-01T08:14:20.462Z,101988.55
2019-06-01T08:19:26.157Z,101991.20
2019-06-01T08:24:32.409Z,101978.17
2019-06-01T08:29:38.044Z,101980.02
2019-06-01T08:34:43.615Z,101978.17
2019-06-01T08:39:49.027Z,101968.94
2019-06-01T08:44:54.382Z,101962.77
2019-06-01T08:49:59.917Z,101962.34
2019-06-01T08:55:07.797Z,101960.45
2019-06-01T09:00:14.191Z,101962.19
2019-06-01T09:05:24.292Z,101951.23
2019-06-01T09:10:27.541Z,101944.25
2019-06-01T09:15:33.725Z,101945.59
2019-06-01T09:20:39.159Z,101951.38
2019-06-01T09:25:45.137Z,101946.07
2019-06-01T09:30:50.774Z,101945.19
2019-06-01T09:35:56.568Z,101945.59
2019-06-01T09:41:02.044Z,101948.23
2019-06-01T09:46:07.448Z,101941.66
2019-06-01T09:51:12.919Z,101930.16
2019-06-01T09:56:18.371Z,101922.63
2019-06-01T10:01:23.633Z,101926.18
2019-06-01T10:06:28.854Z,101908.86
2019-06-01T10:11:34.353Z,101912.78
2019-06-01T10:16:40.031Z,101913.30
2019-06-01T10:21:45.250Z,101903.92
2019-06-01T10:26:51.136Z,101903.98
2019-06-01T10:31:56.344Z,101912.31
2019-06-01T10:37:01.656Z,101899.80
2019-06-01T10:42:07.128Z,101895.58
2019-06-01T10:47:13.508Z,101881.43
2019-06-01T10:52:18.967Z,101886.36
2019-06-01T10:57:24.090Z,101872.23
2019-06-01T11:02:29.394Z,101864.94
2019-06-01T11:07:36.760Z,101862.19
2019-06-01T11:12:43.263Z,101853.12
2019-06-01T11:17:48.640Z,101848.04
2019-06-01T11:22:53.733Z,101844.20
2019-06-01T11:27:59.109Z,101844.23
2019-06-01T11:33:04.416Z,101833.00
2019-06-01T11:38:09.665Z,101830.78
2019-06-01T11:43:14.801Z,101829.27
2019-06-01T11:48:20.356Z,101827.39
2019-06-01T11:53:25.825Z,101827.23
2019-06-01T11:58:31.090Z,101821.32
2019-06-01T12:03:37.556Z,101813.33
2019-06-01T12:08:44.075Z,101805.23
2019-06-01T12:13:50.037Z,101795.48
2019-06-01T12:18:55.378Z,101796.67
2019-06-01T12:24:00.460Z,101797.55
2019-06-01T12:29:05.892Z,101778.11
2019-06-01T12:34:11.147Z,101781.69
2019-06-01T12:39:17.460Z,101761.61
2019-06-01T12:44:22.730Z,101757.34
2019-06-01T12:49:28.855Z,101751.90
2019-06-01T12:54:34.161Z,101752.34
2019-06-01T12:59:40.976Z,101738.73
2019-06-01T13:04:46.865Z,101732.41
2019-06-01T13:09:53.006Z,101709.66
2019-06-01T13:14:58.405Z,101704.53
2019-06-01T13:20:07.470Z,101698.15
2019-06-01T13:25:13.951Z,101697.80
2019-06-01T13:30:19.450Z,101700.47
2019-06-01T13:35:24.586Z,101694.92
2019-06-01T13:40:30.027Z,101697.55
2019-06-01T13:45:35.263Z,101691.48
2019-06-01T13:50:40.384Z,101672.25
2019-06-01T13:55:46.098Z,101676.88
2019-06-01T14:00:53.116Z,101674.63
2019-06-01T14:06:00.972Z,101671.84
2019-06-01T14:11:05.639Z,101666.84
2019-06-01T14:16:10.796Z,101655.02
2019-06-01T14:21:16.003Z,101642.98
2019-06-01T14:26:21.334Z,101633.66
2019-06-01T14:31:26.527Z,101624.88
2019-06-01T14:36:31.936Z,101619.69
2019-06-01T14:41:38.785Z,101604.02
2019-06-01T14:46:55.024Z,101588.23
2019-06-01T14:51:51.570Z,101577.04
2019-06-01T14:56:57.950Z,101576.20
2019-06-01T15:02:03.869Z,101583.86
2019-06-01T15:07:09.273Z,101578.52
2019-06-01T15:12:14.975Z,101582.34
2019-06-01T15:17:20.768Z,101593.92
2019-06-01T15:22:26.366Z,101603.84
2019-06-01T15:27:34.232Z,101645.08
2019-06-01T15:32:39.993Z,101686.98
2019-06-01T15:37:46.030Z,101671.27
2019-06-01T15:42:52.250Z,101670.31
2019-06-01T15:48:00.568Z,101689.72
2019-06-01T15:53:05.887Z,101701.64
2019-06-01T15:58:11.177Z,101709.58
2019-06-01T16:03:16.544Z,101686.63
2019-06-01T16:08:21.901Z,101688.44
2019-06-01T16:13:27.358Z,101681.37
2019-06-01T16:18:32.616Z,101666.05
2019-06-01T16:23:49.302Z,101650.05
2019-06-01T16:28:45.283Z,101657.22
2019-06-01T16:33:50.714Z,101667.69
2019-06-01T16:39:02.732Z,101685.11
2019-06-01T16:44:03.777Z,101700.46
2019-06-01T16:49:09.195Z,101690.53
2019-06-01T16:54:14.757Z,101680.17
2019-06-01T16:59:20.108Z,101677.37
2019-06-01T17:04:25.272Z,101682.38
2019-06-01T17:09:30.471Z,101679.34
2019-06-01T17:14:35.587Z,101669.45
2019-06-01T17:19:41.010Z,101666.45
2019-06-01T17:24:46.047Z,101670.13
2019-06-01T17:29:51.293Z,101660.97
2019-06-01T17:34:56.451Z,101668.08
2019-06-01T17:40:02.469Z,101665.89
2019-06-01T17:45:09.609Z,101664.59
2019-06-01T17:50:18.280Z,101671.67
2019-06-01T17:55:38.600Z,101672.56
2019-06-01T18:00:44.067Z,101671.70
2019-06-01T18:05:49.531Z,101673.02
2019-06-01T18:10:55.203Z,101679.16
2019-06-01T18:16:03.024Z,101674.28
2019-06-01T18:21:10.380Z,101684.41
2019-06-01T18:26:16.367Z,101672.00
2019-06-01T18:31:22.505Z,101669.79
2019-06-01T18:36:27.793Z,101658.72
2019-06-01T18:41:32.850Z,101661.28
2019-06-01T18:46:38.375Z,101663.84
2019-06-01T18:51:43.892Z,101663.44
2019-06-01T18:56:49.480Z,101666.95
2019-06-01T19:01:54.905Z,101667.78
2019-06-01T19:07:00.172Z,101667.66
2019-06-01T19:12:06.682Z,101665.41
2019-06-01T19:17:12.358Z,101680.23
2019-06-01T19:22:17.900Z,101675.26
2019-06-01T19:27:23.251Z,101673.98
2019-06-01T19:32:28.720Z,101680.48
2019-06-01T19:37:38.656Z,101675.06
2019-06-01T19:42:43.681Z,101680.19
2019-06-01T19:47:49.280Z,101679.12
2019-06-01T19:52:54.966Z,101682.59
2019-06-01T19:58:00.524Z,101671.48
2019-06-01T20:03:06.719Z,101671.69
2019-06-01T20:08:12.213Z,101666.83
2019-06-01T20:13:17.457Z,101672.25
2019-06-01T20:18:23.038Z,101672.11
2019-06-01T20:23:28.409Z,101677.66
2019-06-01T20:28:34.015Z,101663.60
2019-06-01T20:33:39.351Z,101672.89
2019-06-01T20:38:44.733Z,101677.05
2019-06-01T20:43:50.094Z,101676.19
2019-06-01T20:48:55.653Z,101680.56
2019-06-01T20:54:00.922Z,101683.20
2019-06-01T20:59:06.682Z,101683.53
2019-06-01T21:04:11.898Z,101675.78
2019-06-01T21:09:17.817Z,101674.86
2019-06-01T21:14:23.393Z,101675.58
2019-06-01T21:19:28.833Z,101664.19
2019-06-01T21:24:34.137Z,101660.73
2019-06-01T21:29:39.451Z,101658.66
2019-06-01T21:34:44.804Z,101661.23
2019-06-01T21:39:50.267Z,101657.67
2019-06-01T21:44:55.546Z,101668.19
2019-06-01T21:50:00.823Z,101664.13
2019-06-01T21:55:09.324Z,101672.02
2019-06-01T22:00:28.537Z,101675.06
2019-06-01T22:05:35.348Z,101676.85
2019-06-01T22:10:40.739Z,101674.47
2019-06-01T22:15:45.965Z,101673.06
2019-06-01T22:20:52.366Z,101683.70
2019-06-01T22:25:57.847Z,101673.95
2019-06-01T22:31:03.299Z,101680.83
2019-06-01T22:36:08.652Z,101689.97
2019-06-01T22:41:13.921Z,101690.45
2019-06-01T22:46:20.398Z,101684.67
2019-06-01T22:51:27.053Z,101682.39
2019-06-01T22:56:32.867Z,101683.80
2019-06-01T23:01:39.853Z,101677.52
2019-06-01T23:06:46.240Z,101678.05
2019-06-01T23:11:51.491Z,101677.39
2019-06-01T23:16:56.960Z,101675.39
2019-06-01T23:22:02.323Z,101671.96
2019-06-01T23:27:07.996Z,101676.44
2019-06-01T23:32:13.342Z,101668.82
2019-06-01T23:37:18.712Z,101664.78
2019-06-01T23:42:24.577Z,101659.91
2019-06-01T23:47:31.272Z,101667.32
2019-06-01T23:52:37.034Z,101651.22
2019-06-01T23:57:42.702Z,101661.00
